sensor_id;sensor_type;location;lat;lon;timestamp;pressure;altitude;pressure_sealevel;temperature;humidity
54554;BME280;40450;55.848;-3.572;2022-08-25T00:02:16;99585.15;;;12.59;87.72
54554;BME280;40450;55.848;-3.572;2022-08-25T00:04:46;99590.12;;;12.59;87.70
54554;BME280;40450;55.848;-3.572;2022-08-25T00:07:16;99583.06;;;12.79;87.11
54554;BME280;40450;55.848;-3.572;2022-08-25T00:09:47;99582.88;;;13.32;85.62
54554;BME280;40450;55.848;-3.572;2022-08-25T00:12:17;99583.86;;;13.42;85.55
54554;BME280;40450;55.848;-3.572;2022-08-25T00:14:48;99584.63;;;13.76;84.63
54554;BME280;40450;55.848;-3.572;2022-08-25T00:17:18;99585.46;;;13.63;84.07
54554;BME280;40450;55.848;-3.572;2022-08-25T00:19:48;99588.49;;;13.60;84.45
54554;BME280;40450;55.848;-3.572;2022-08-25T00:22:19;99588.11;;;13.50;84.64
54554;BME280;40450;55.848;-3.572;2022-08-25T00:24:54;99584.08;;;13.17;85.70
54554;BME280;40450;55.848;-3.572;2022-08-25T00:27:19;99580.91;;;13.09;86.21
54554;BME280;40450;55.848;-3.572;2022-08-25T00:29:50;99588.32;;;13.28;85.59
54554;BME280;40450;55.848;-3.572;2022-08-25T00:32:20;99587.44;;;12.71;87.76
54554;BME280;40450;55.848;-3.572;2022-08-25T00:34:50;99586.23;;;12.97;87.00
54554;BME280;40450;55.848;-3.572;2022-08-25T00:37:21;99585.99;;;12.76;87.54
54554;BME280;40450;55.848;-3.572;2022-08-25T00:39:51;99583.72;;;12.83;87.51
54554;BME280;40450;55.848;-3.572;2022-08-25T00:42:22;99588.56;;;12.69;88.17
54554;BME280;40450;55.848;-3.572;2022-08-25T00:44:52;99585.48;;;12.94;87.46
54554;BME280;40450;55.848;-3.572;2022-08-25T00:47:23;99590.19;;;12.67;88.32
54554;BME280;40450;55.848;-3.572;2022-08-25T00:49:55;99594.40;;;12.79;88.14
54554;BME280;40450;55.848;-3.572;2022-08-25T00:52:26;99595.34;;;12.64;88.41
54554;BME280;40450;55.848;-3.572;2022-08-25T00:54:57;99594.76;;;12.50;88.78
54554;BME280;40450;55.848;-3.572;2022-08-25T00:57:33;99597.70;;;12.46;89.09
54554;BME280;40450;55.848;-3.572;2022-08-25T00:59:55;99601.50;;;12.44;89.28
54554;BME280;40450;55.848;-3.572;2022-08-25T01:02:25;99608.16;;;12.22;90.16
54554;BME280;40450;55.848;-3.572;2022-08-25T01:04:55;99608.30;;;12.05;90.53
54554;BME280;40450;55.848;-3.572;2022-08-25T01:07:25;99607.59;;;12.31;90.01
54554;BME280;40450;55.848;-3.572;2022-08-25T01:09:56;99609.38;;;12.34;89.75
54554;BME280;40450;55.848;-3.572;2022-08-25T01:12:26;99609.70;;;12.87;88.52
54554;BME280;40450;55.848;-3.572;2022-08-25T01:14:57;99615.05;;;12.84;88.08
54554;BME280;40450;55.848;-3.572;2022-08-25T01:17:32;99615.39;;;12.86;87.86
54554;BME280;40450;55.848;-3.572;2022-08-25T01:19:57;99619.25;;;13.02;87.35
54554;BME280;40450;55.848;-3.572;2022-08-25T01:22:27;99621.02;;;13.20;86.85
54554;BME280;40450;55.848;-3.572;2022-08-25T01:25:03;99623.34;;;13.40;85.13
54554;BME280;40450;55.848;-3.572;2022-08-25T01:27:30;99628.02;;;13.96;83.57
54554;BME280;40450;55.848;-3.572;2022-08-25T01:29:59;99626.95;;;13.57;84.09
54554;BME280;40450;55.848;-3.572;2022-08-25T01:32:33;99630.81;;;14.04;82.84
54554;BME280;40450;55.848;-3.572;2022-08-25T01:35:00;99630.20;;;13.87;83.83
54554;BME280;40450;55.848;-3.572;2022-08-25T01:37:33;99631.92;;;12.82;87.29
54554;BME280;40450;55.848;-3.572;2022-08-25T01:40:00;99626.75;;;13.00;87.15
54554;BME280;40450;55.848;-3.572;2022-08-25T01:42:41;99628.47;;;13.10;87.04
54554;BME280;40450;55.848;-3.572;2022-08-25T01:45:01;99628.80;;;13.04;87.07
54554;BME280;40450;55.848;-3.572;2022-08-25T01:47:31;99632.41;;;12.70;88.08
54554;BME280;40450;55.848;-3.572;2022-08-25T01:50:02;99634.55;;;12.51;88.93
54554;BME280;40450;55.848;-3.572;2022-08-25T01:52:38;99636.25;;;12.33;89.40
54554;BME280;40450;55.848;-3.572;2022-08-25T01:55:03;99634.33;;;12.28;89.73
54554;BME280;40450;55.848;-3.572;2022-08-25T01:57:32;99630.12;;;12.45;89.42
54554;BME280;40450;55.848;-3.572;2022-08-25T02:00:10;99630.94;;;12.25;89.78
54554;BME280;40450;55.848;-3.572;2022-08-25T02:02:33;99630.81;;;12.13;90.35
54554;BME280;40450;55.848;-3.572;2022-08-25T02:05:04;99635.03;;;12.13;90.25
54554;BME280;40450;55.848;-3.572;2022-08-25T02:07:34;99637.07;;;12.13;90.39
54554;BME280;40450;55.848;-3.572;2022-08-25T02:10:06;99635.52;;;12.81;88.49
54554;BME280;40450;55.848;-3.572;2022-08-25T02:12:34;99638.13;;;12.93;88.22
54554;BME280;40450;55.848;-3.572;2022-08-25T02:15:07;99634.74;;;12.83;88.32
54554;BME280;40450;55.848;-3.572;2022-08-25T02:17:35;99638.00;;;12.58;88.92
54554;BME280;40450;55.848;-3.572;2022-08-25T02:20:06;99641.54;;;12.25;89.72
54554;BME280;40450;55.848;-3.572;2022-08-25T02:22:36;99639.72;;;11.96;90.85
54554;BME280;40450;55.848;-3.572;2022-08-25T02:25:07;99640.07;;;12.15;90.38
54554;BME280;40450;55.848;-3.572;2022-08-25T02:27:37;99639.84;;;11.80;91.26
54554;BME280;40450;55.848;-3.572;2022-08-25T02:30:08;99635.62;;;12.21;90.17
54554;BME280;40450;55.848;-3.572;2022-08-25T02:32:37;99636.12;;;12.00;90.68
54554;BME280;40450;55.848;-3.572;2022-08-25T02:35:08;99636.83;;;12.25;90.14
54554;BME280;40450;55.848;-3.572;2022-08-25T02:37:38;99637.98;;;12.40;89.67
54554;BME280;40450;55.848;-3.572;2022-08-25T02:40:09;99637.81;;;12.49;89.80
54554;BME280;40450;55.848;-3.572;2022-08-25T02:42:38;99637.90;;;12.55;89.55
54554;BME280;40450;55.848;-3.572;2022-08-25T02:45:09;99641.47;;;13.03;88.39
54554;BME280;40450;55.848;-3.572;2022-08-25T02:47:39;99641.37;;;12.75;88.65
54554;BME280;40450;55.848;-3.572;2022-08-25T02:50:10;99641.77;;;12.74;88.79
54554;BME280;40450;55.848;-3.572;2022-08-25T02:52:40;99643.15;;;12.33;89.72
54554;BME280;40450;55.848;-3.572;2022-08-25T02:55:11;99643.07;;;12.39;89.75
54554;BME280;40450;55.848;-3.572;2022-08-25T02:57:41;99643.29;;;12.45;89.73
54554;BME280;40450;55.848;-3.572;2022-08-25T03:00:13;99643.50;;;12.52;89.61
54554;BME280;40450;55.848;-3.572;2022-08-25T03:02:41;99643.92;;;12.69;89.07
54554;BME280;40450;55.848;-3.572;2022-08-25T03:05:13;99646.27;;;12.65;89.15
54554;BME280;40450;55.848;-3.572;2022-08-25T03:07:42;99642.53;;;12.09;90.79
54554;BME280;40450;55.848;-3.572;2022-08-25T03:10:15;99641.33;;;12.17;90.53
54554;BME280;40450;55.848;-3.572;2022-08-25T03:12:42;99636.10;;;12.17;90.59
54554;BME280;40450;55.848;-3.572;2022-08-25T03:15:14;99634.22;;;12.16;91.01
54554;BME280;40450;55.848;-3.572;2022-08-25T03:17:45;99636.42;;;11.98;91.74
54554;BME280;40450;55.848;-3.572;2022-08-25T03:20:14;99638.82;;;12.06;91.40
54554;BME280;40450;55.848;-3.572;2022-08-25T03:22:50;99637.87;;;12.27;90.94
54554;BME280;40450;55.848;-3.572;2022-08-25T03:25:16;99635.26;;;12.43;90.49
54554;BME280;40450;55.848;-3.572;2022-08-25T03:27:45;99635.42;;;11.81;92.48
54554;BME280;40450;55.848;-3.572;2022-08-25T03:30:16;99631.32;;;10.99;94.73
54554;BME280;40450;55.848;-3.572;2022-08-25T03:32:52;99633.67;;;11.16;94.59
54554;BME280;40450;55.848;-3.572;2022-08-25T03:37:48;99635.58;;;11.81;93.09
54554;BME280;40450;55.848;-3.572;2022-08-25T03:40:17;99636.27;;;11.96;92.77
54554;BME280;40450;55.848;-3.572;2022-08-25T03:42:47;99636.35;;;11.87;92.90
54554;BME280;40450;55.848;-3.572;2022-08-25T03:45:18;99634.46;;;11.86;92.63
54554;BME280;40450;55.848;-3.572;2022-08-25T03:47:48;99634.61;;;11.79;92.69
54554;BME280;40450;55.848;-3.572;2022-08-25T03:50:21;99629.33;;;11.67;92.95
54554;BME280;40450;55.848;-3.572;2022-08-25T03:55:20;99625.51;;;11.54;93.16
54554;BME280;40450;55.848;-3.572;2022-08-25T03:57:48;99630.77;;;11.60;93.29
54554;BME280;40450;55.848;-3.572;2022-08-25T04:00:19;99632.55;;;11.69;93.09
54554;BME280;40450;55.848;-3.572;2022-08-25T04:02:49;99629.69;;;11.84;92.51
54554;BME280;40450;55.848;-3.572;2022-08-25T04:05:19;99628.42;;;12.12;91.70
54554;BME280;40450;55.848;-3.572;2022-08-25T04:07:50;99626.58;;;11.95;92.04
54554;BME280;40450;55.848;-3.572;2022-08-25T04:10:20;99626.42;;;12.31;91.18
54554;BME280;40450;55.848;-3.572;2022-08-25T04:12:51;99625.38;;;12.53;90.34
54554;BME280;40450;55.848;-3.572;2022-08-25T04:15:21;99622.94;;;12.65;89.67
54554;BME280;40450;55.848;-3.572;2022-08-25T04:17:51;99622.11;;;12.45;90.28
54554;BME280;40450;55.848;-3.572;2022-08-25T04:20:21;99624.26;;;12.25;90.75
54554;BME280;40450;55.848;-3.572;2022-08-25T04:22:52;99623.00;;;12.30;90.69
54554;BME280;40450;55.848;-3.572;2022-08-25T04:25:22;99620.58;;;12.32;90.51
54554;BME280;40450;55.848;-3.572;2022-08-25T04:27:52;99624.05;;;12.73;89.54
54554;BME280;40450;55.848;-3.572;2022-08-25T04:30:23;99624.15;;;12.74;89.66
54554;BME280;40450;55.848;-3.572;2022-08-25T04:32:53;99618.81;;;12.57;89.66
54554;BME280;40450;55.848;-3.572;2022-08-25T04:35:24;99616.09;;;12.34;90.38
54554;BME280;40450;55.848;-3.572;2022-08-25T04:37:54;99617.66;;;12.01;91.30
54554;BME280;40450;55.848;-3.572;2022-08-25T04:40:25;99619.08;;;11.46;92.79
54554;BME280;40450;55.848;-3.572;2022-08-25T04:42:55;99619.29;;;11.72;92.51
54554;BME280;40450;55.848;-3.572;2022-08-25T04:45:25;99622.73;;;11.53;92.84
54554;BME280;40450;55.848;-3.572;2022-08-25T04:47:55;99625.02;;;11.36;93.31
54554;BME280;40450;55.848;-3.572;2022-08-25T04:50:26;99621.95;;;11.65;92.52
54554;BME280;40450;55.848;-3.572;2022-08-25T04:53:00;99623.57;;;11.97;91.69
54554;BME280;40450;55.848;-3.572;2022-08-25T04:55:27;99622.31;;;12.02;91.59
54554;BME280;40450;55.848;-3.572;2022-08-25T04:57:58;99621.29;;;11.67;92.67
54554;BME280;40450;55.848;-3.572;2022-08-25T05:00:27;99620.98;;;11.53;93.05
54554;BME280;40450;55.848;-3.572;2022-08-25T05:02:57;99623.26;;;11.20;94.12
54554;BME280;40450;55.848;-3.572;2022-08-25T05:05:28;99625.57;;;11.70;92.82
54554;BME280;40450;55.848;-3.572;2022-08-25T05:07:58;99630.45;;;11.75;92.24
54554;BME280;40450;55.848;-3.572;2022-08-25T05:10:37;99629.58;;;11.96;91.71
54554;BME280;40450;55.848;-3.572;2022-08-25T05:12:59;99631.74;;;11.38;93.13
54554;BME280;40450;55.848;-3.572;2022-08-25T05:15:29;99635.15;;;11.82;91.85
54554;BME280;40450;55.848;-3.572;2022-08-25T05:18:00;99636.64;;;12.24;90.85
54554;BME280;40450;55.848;-3.572;2022-08-25T05:20:30;99634.03;;;12.21;90.79
54554;BME280;40450;55.848;-3.572;2022-08-25T05:23:00;99634.37;;;12.21;90.85
54554;BME280;40450;55.848;-3.572;2022-08-25T05:25:31;99635.25;;;12.54;89.77
54554;BME280;40450;55.848;-3.572;2022-08-25T05:28:04;99629.91;;;12.69;89.51
54554;BME280;40450;55.848;-3.572;2022-08-25T05:30:32;99630.29;;;13.09;87.78
54554;BME280;40450;55.848;-3.572;2022-08-25T05:33:02;99633.42;;;13.42;87.21
54554;BME280;40450;55.848;-3.572;2022-08-25T05:35:32;99633.70;;;13.34;86.63
54554;BME280;40450;55.848;-3.572;2022-08-25T05:38:03;99635.94;;;13.06;87.38
54554;BME280;40450;55.848;-3.572;2022-08-25T05:40:34;99639.72;;;12.24;89.59
54554;BME280;40450;55.848;-3.572;2022-08-25T05:43:03;99636.99;;;12.08;90.32
54554;BME280;40450;55.848;-3.572;2022-08-25T05:45:34;99633.53;;;11.86;91.26
54554;BME280;40450;55.848;-3.572;2022-08-25T05:48:04;99637.83;;;11.81;91.71
54554;BME280;40450;55.848;-3.572;2022-08-25T05:50:39;99638.01;;;11.51;92.44
54554;BME280;40450;55.848;-3.572;2022-08-25T05:53:04;99636.63;;;11.58;92.31
54554;BME280;40450;55.848;-3.572;2022-08-25T05:55:35;99629.87;;;11.92;91.79
54554;BME280;40450;55.848;-3.572;2022-08-25T05:58:05;99632.24;;;12.04;91.05
54554;BME280;40450;55.848;-3.572;2022-08-25T06:00:36;99636.25;;;12.47;89.85
54554;BME280;40450;55.848;-3.572;2022-08-25T06:03:06;99641.64;;;11.73;91.83
54554;BME280;40450;55.848;-3.572;2022-08-25T06:05:36;99636.50;;;11.58;92.50
54554;BME280;40450;55.848;-3.572;2022-08-25T06:08:07;99633.92;;;11.77;92.07
54554;BME280;40450;55.848;-3.572;2022-08-25T06:10:37;99636.59;;;11.83;91.87
54554;BME280;40450;55.848;-3.572;2022-08-25T06:13:07;99634.31;;;11.96;91.61
54554;BME280;40450;55.848;-3.572;2022-08-25T06:15:37;99627.65;;;12.61;90.19
54554;BME280;40450;55.848;-3.572;2022-08-25T06:18:07;99627.18;;;12.29;90.62
54554;BME280;40450;55.848;-3.572;2022-08-25T06:20:37;99626.06;;;12.06;91.29
54554;BME280;40450;55.848;-3.572;2022-08-25T06:23:08;99624.76;;;11.36;93.12
54554;BME280;40450;55.848;-3.572;2022-08-25T06:25:38;99623.72;;;11.42;93.34
54554;BME280;40450;55.848;-3.572;2022-08-25T06:28:08;99625.75;;;11.06;94.33
54554;BME280;40450;55.848;-3.572;2022-08-25T06:30:39;99625.85;;;11.17;94.18
54554;BME280;40450;55.848;-3.572;2022-08-25T06:33:10;99630.68;;;11.43;93.61
54554;BME280;40450;55.848;-3.572;2022-08-25T06:35:41;99630.72;;;11.99;92.58
54554;BME280;40450;55.848;-3.572;2022-08-25T06:38:10;99635.73;;;12.06;91.90
54554;BME280;40450;55.848;-3.572;2022-08-25T06:40:40;99644.96;;;12.41;90.98
54554;BME280;40450;55.848;-3.572;2022-08-25T06:43:16;99645.67;;;12.67;90.05
54554;BME280;40450;55.848;-3.572;2022-08-25T06:45:46;99647.80;;;12.76;89.73
54554;BME280;40450;55.848;-3.572;2022-08-25T06:48:11;99643.20;;;13.06;89.59
54554;BME280;40450;55.848;-3.572;2022-08-25T06:50:42;99641.25;;;12.98;89.27
54554;BME280;40450;55.848;-3.572;2022-08-25T06:53:12;99638.04;;;13.20;88.40
54554;BME280;40450;55.848;-3.572;2022-08-25T06:55:42;99642.36;;;13.74;88.32
54554;BME280;40450;55.848;-3.572;2022-08-25T06:58:12;99646.78;;;13.79;86.41
54554;BME280;40450;55.848;-3.572;2022-08-25T07:00:43;99642.80;;;13.78;86.17
54554;BME280;40450;55.848;-3.572;2022-08-25T07:03:13;99645.77;;;14.10;85.58
54554;BME280;40450;55.848;-3.572;2022-08-25T07:05:49;99648.25;;;13.85;85.73
54554;BME280;40450;55.848;-3.572;2022-08-25T07:08:14;99654.15;;;13.94;85.89
54554;BME280;40450;55.848;-3.572;2022-08-25T07:10:44;99654.99;;;13.26;87.42
54554;BME280;40450;55.848;-3.572;2022-08-25T07:13:14;99659.79;;;12.81;88.81
54554;BME280;40450;55.848;-3.572;2022-08-25T07:15:44;99664.52;;;12.40;90.30
54554;BME280;40450;55.848;-3.572;2022-08-25T07:18:15;99666.52;;;12.43;90.45
54554;BME280;40450;55.848;-3.572;2022-08-25T07:20:45;99667.56;;;13.00;88.88
54554;BME280;40450;55.848;-3.572;2022-08-25T07:23:15;99668.96;;;13.22;89.08
54554;BME280;40450;55.848;-3.572;2022-08-25T07:25:45;99675.00;;;14.00;86.81
54554;BME280;40450;55.848;-3.572;2022-08-25T07:28:17;99674.55;;;13.83;86.06
54554;BME280;40450;55.848;-3.572;2022-08-25T07:30:48;99670.93;;;13.81;86.24
54554;BME280;40450;55.848;-3.572;2022-08-25T07:33:16;99673.03;;;14.12;86.00
54554;BME280;40450;55.848;-3.572;2022-08-25T07:35:46;99681.03;;;14.63;83.96
54554;BME280;40450;55.848;-3.572;2022-08-25T07:38:17;99681.41;;;14.42;84.00
54554;BME280;40450;55.848;-3.572;2022-08-25T07:40:47;99679.68;;;14.48;84.02
54554;BME280;40450;55.848;-3.572;2022-08-25T07:43:17;99672.79;;;13.84;85.74
54554;BME280;40450;55.848;-3.572;2022-08-25T07:45:48;99674.61;;;13.97;85.68
54554;BME280;40450;55.848;-3.572;2022-08-25T07:48:18;99672.59;;;14.46;85.31
54554;BME280;40450;55.848;-3.572;2022-08-25T07:50:49;99683.34;;;14.11;85.49
54554;BME280;40450;55.848;-3.572;2022-08-25T07:53:19;99685.40;;;13.89;86.11
54554;BME280;40450;55.848;-3.572;2022-08-25T07:55:49;99688.27;;;14.07;85.83
54554;BME280;40450;55.848;-3.572;2022-08-25T07:58:19;99684.68;;;13.71;86.28
54554;BME280;40450;55.848;-3.572;2022-08-25T08:00:50;99691.99;;;13.14;88.05
54554;BME280;40450;55.848;-3.572;2022-08-25T08:03:20;99701.00;;;13.31;87.97
54554;BME280;40450;55.848;-3.572;2022-08-25T08:05:50;99705.32;;;13.51;87.98
54554;BME280;40450;55.848;-3.572;2022-08-25T08:08:21;99708.27;;;13.45;88.36
54554;BME280;40450;55.848;-3.572;2022-08-25T08:10:51;99706.13;;;13.69;87.70
54554;BME280;40450;55.848;-3.572;2022-08-25T08:13:22;99710.58;;;14.02;86.50
54554;BME280;40450;55.848;-3.572;2022-08-25T08:15:52;99716.53;;;14.74;85.32
54554;BME280;40450;55.848;-3.572;2022-08-25T08:18:22;99723.22;;;15.08;84.08
54554;BME280;40450;55.848;-3.572;2022-08-25T08:20:52;99722.60;;;15.09;83.51
54554;BME280;40450;55.848;-3.572;2022-08-25T08:23:23;99721.09;;;14.48;84.38
54554;BME280;40450;55.848;-3.572;2022-08-25T08:25:53;99715.71;;;14.41;85.16
54554;BME280;40450;55.848;-3.572;2022-08-25T08:28:28;99720.28;;;14.49;85.48
54554;BME280;40450;55.848;-3.572;2022-08-25T08:30:53;99725.51;;;15.06;84.55
54554;BME280;40450;55.848;-3.572;2022-08-25T08:33:24;99716.99;;;15.96;82.95
54554;BME280;40450;55.848;-3.572;2022-08-25T08:35:58;99720.50;;;15.60;81.68
54554;BME280;40450;55.848;-3.572;2022-08-25T08:38:24;99713.16;;;15.72;80.78
54554;BME280;40450;55.848;-3.572;2022-08-25T08:41:04;99710.58;;;16.11;80.68
54554;BME280;40450;55.848;-3.572;2022-08-25T08:43:25;99705.98;;;14.98;81.60
54554;BME280;40450;55.848;-3.572;2022-08-25T08:45:55;99704.23;;;14.90;83.09
54554;BME280;40450;55.848;-3.572;2022-08-25T08:48:37;99712.46;;;14.52;84.15
54554;BME280;40450;55.848;-3.572;2022-08-25T08:51:02;99713.83;;;14.79;83.11
54554;BME280;40450;55.848;-3.572;2022-08-25T08:53:35;99719.67;;;15.16;81.82
54554;BME280;40450;55.848;-3.572;2022-08-25T08:55:59;99716.35;;;15.88;78.93
54554;BME280;40450;55.848;-3.572;2022-08-25T08:58:33;99715.02;;;16.03;79.38
54554;BME280;40450;55.848;-3.572;2022-08-25T09:00:57;99717.34;;;16.13;78.27
54554;BME280;40450;55.848;-3.572;2022-08-25T09:03:33;99703.91;;;17.41;78.84
54554;BME280;40450;55.848;-3.572;2022-08-25T09:06:01;99699.91;;;18.11;73.74
54554;BME280;40450;55.848;-3.572;2022-08-25T09:08:28;99696.93;;;16.35;76.63
54554;BME280;40450;55.848;-3.572;2022-08-25T09:11:03;99692.12;;;17.86;73.37
54554;BME280;40450;55.848;-3.572;2022-08-25T09:13:42;99695.84;;;18.59;68.92
54554;BME280;40450;55.848;-3.572;2022-08-25T09:16:04;99700.10;;;18.56;70.08
54554;BME280;40450;55.848;-3.572;2022-08-25T09:18:36;99699.16;;;19.09;70.75
54554;BME280;40450;55.848;-3.572;2022-08-25T09:21:07;99707.11;;;18.69;68.94
54554;BME280;40450;55.848;-3.572;2022-08-25T09:23:37;99701.28;;;18.73;68.26
54554;BME280;40450;55.848;-3.572;2022-08-25T09:26:11;99693.43;;;18.40;68.86
54554;BME280;40450;55.848;-3.572;2022-08-25T09:28:34;99685.52;;;17.87;69.74
54554;BME280;40450;55.848;-3.572;2022-08-25T09:31:16;99679.53;;;18.05;70.09
54554;BME280;40450;55.848;-3.572;2022-08-25T09:33:33;99680.31;;;18.26;70.64
54554;BME280;40450;55.848;-3.572;2022-08-25T09:36:02;99683.88;;;18.49;69.01
54554;BME280;40450;55.848;-3.572;2022-08-25T09:38:32;99678.74;;;17.80;69.20
54554;BME280;40450;55.848;-3.572;2022-08-25T09:41:03;99670.90;;;18.41;69.29
54554;BME280;40450;55.848;-3.572;2022-08-25T09:43:35;99682.13;;;18.40;68.93
54554;BME280;40450;55.848;-3.572;2022-08-25T09:46:10;99687.37;;;18.85;67.08
54554;BME280;40450;55.848;-3.572;2022-08-25T09:48:43;99679.96;;;19.11;66.20
54554;BME280;40450;55.848;-3.572;2022-08-25T09:51:11;99671.97;;;19.29;66.10
54554;BME280;40450;55.848;-3.572;2022-08-25T09:53:34;99680.67;;;18.51;67.77
54554;BME280;40450;55.848;-3.572;2022-08-25T09:56:05;99688.34;;;18.22;68.45
54554;BME280;40450;55.848;-3.572;2022-08-25T09:58:35;99676.71;;;18.80;67.63
54554;BME280;40450;55.848;-3.572;2022-08-25T10:01:12;99684.56;;;18.38;66.22
54554;BME280;40450;55.848;-3.572;2022-08-25T10:03:36;99688.24;;;18.77;65.91
54554;BME280;40450;55.848;-3.572;2022-08-25T10:06:10;99688.52;;;18.37;66.54
54554;BME280;40450;55.848;-3.572;2022-08-25T10:08:38;99686.07;;;17.16;70.75
54554;BME280;40450;55.848;-3.572;2022-08-25T10:11:09;99675.61;;;17.30;71.51
54554;BME280;40450;55.848;-3.572;2022-08-25T10:13:40;99684.91;;;17.62;70.66
54554;BME280;40450;55.848;-3.572;2022-08-25T10:16:11;99696.50;;;17.77;71.01
54554;BME280;40450;55.848;-3.572;2022-08-25T10:18:37;99688.10;;;17.92;70.77
54554;BME280;40450;55.848;-3.572;2022-08-25T10:21:11;99686.09;;;18.21;69.70
54554;BME280;40450;55.848;-3.572;2022-08-25T10:23:41;99694.25;;;18.56;67.85
54554;BME280;40450;55.848;-3.572;2022-08-25T10:26:15;99693.99;;;18.97;67.15
54554;BME280;40450;55.848;-3.572;2022-08-25T10:28:47;99695.80;;;18.82;66.23
54554;BME280;40450;55.848;-3.572;2022-08-25T10:31:14;99677.14;;;18.54;66.36
54554;BME280;40450;55.848;-3.572;2022-08-25T10:33:47;99681.09;;;18.36;66.83
54554;BME280;40450;55.848;-3.572;2022-08-25T10:36:16;99670.29;;;18.11;68.03
54554;BME280;40450;55.848;-3.572;2022-08-25T10:38:51;99665.98;;;18.01;68.47
54554;BME280;40450;55.848;-3.572;2022-08-25T10:43:46;99656.15;;;17.29;70.44
54554;BME280;40450;55.848;-3.572;2022-08-25T10:46:16;99671.89;;;17.49;71.76
54554;BME280;40450;55.848;-3.572;2022-08-25T10:48:50;99669.52;;;17.75;69.81
54554;BME280;40450;55.848;-3.572;2022-08-25T10:51:28;99663.28;;;18.48;68.74
54554;BME280;40450;55.848;-3.572;2022-08-25T10:53:50;99665.66;;;18.38;68.51
54554;BME280;40450;55.848;-3.572;2022-08-25T10:56:16;99667.12;;;18.23;67.12
54554;BME280;40450;55.848;-3.572;2022-08-25T10:58:55;99661.01;;;17.81;67.71
54554;BME280;40450;55.848;-3.572;2022-08-25T11:01:22;99665.51;;;17.11;68.63
54554;BME280;40450;55.848;-3.572;2022-08-25T11:03:49;99669.62;;;18.21;67.21
54554;BME280;40450;55.848;-3.572;2022-08-25T11:06:19;99664.23;;;18.83;65.87
54554;BME280;40450;55.848;-3.572;2022-08-25T11:08:49;99660.47;;;19.01;65.21
54554;BME280;40450;55.848;-3.572;2022-08-25T11:11:23;99655.40;;;18.74;65.72
54554;BME280;40450;55.848;-3.572;2022-08-25T11:13:50;99653.26;;;18.91;65.54
54554;BME280;40450;55.848;-3.572;2022-08-25T11:16:24;99646.97;;;19.28;65.00
54554;BME280;40450;55.848;-3.572;2022-08-25T11:18:54;99656.89;;;19.76;64.40
54554;BME280;40450;55.848;-3.572;2022-08-25T11:21:23;99653.31;;;19.67;63.54
54554;BME280;40450;55.848;-3.572;2022-08-25T11:23:54;99655.79;;;19.47;63.20
54554;BME280;40450;55.848;-3.572;2022-08-25T11:26:25;99667.24;;;18.81;64.84
54554;BME280;40450;55.848;-3.572;2022-08-25T11:28:56;99666.87;;;18.12;67.10
54554;BME280;40450;55.848;-3.572;2022-08-25T11:31:21;99656.15;;;17.01;70.77
54554;BME280;40450;55.848;-3.572;2022-08-25T11:33:52;99661.37;;;17.49;68.46
54554;BME280;40450;55.848;-3.572;2022-08-25T11:36:26;99662.87;;;18.23;66.53
54554;BME280;40450;55.848;-3.572;2022-08-25T11:39:02;99661.29;;;18.96;63.94
54554;BME280;40450;55.848;-3.572;2022-08-25T11:41:28;99660.48;;;18.85;65.21
54554;BME280;40450;55.848;-3.572;2022-08-25T11:44:08;99653.70;;;19.24;63.88
54554;BME280;40450;55.848;-3.572;2022-08-25T11:46:40;99653.86;;;19.21;63.66
54554;BME280;40450;55.848;-3.572;2022-08-25T11:49:16;99654.27;;;19.76;62.34
54554;BME280;40450;55.848;-3.572;2022-08-25T11:51:28;99652.38;;;19.76;61.32
54554;BME280;40450;55.848;-3.572;2022-08-25T11:56:30;99650.78;;;20.29;60.89
54554;BME280;40450;55.848;-3.572;2022-08-25T11:58:55;99647.76;;;19.37;62.38
54554;BME280;40450;55.848;-3.572;2022-08-25T12:06:29;99645.33;;;19.36;62.26
54554;BME280;40450;55.848;-3.572;2022-08-25T12:16:39;99651.90;;;19.71;61.01
54554;BME280;40450;55.848;-3.572;2022-08-25T12:21:31;99644.24;;;19.29;62.57
54554;BME280;40450;55.848;-3.572;2022-08-25T12:24:05;99651.29;;;19.68;63.86
54554;BME280;40450;55.848;-3.572;2022-08-25T12:26:35;99655.56;;;20.32;62.23
54554;BME280;40450;55.848;-3.572;2022-08-25T12:29:05;99654.10;;;20.99;58.94
54554;BME280;40450;55.848;-3.572;2022-08-25T12:31:43;99647.39;;;21.02;58.26
54554;BME280;40450;55.848;-3.572;2022-08-25T12:34:13;99651.82;;;20.40;59.61
54554;BME280;40450;55.848;-3.572;2022-08-25T12:36:31;99642.57;;;21.03;58.13
54554;BME280;40450;55.848;-3.572;2022-08-25T12:39:15;99639.80;;;21.10;57.34
54554;BME280;40450;55.848;-3.572;2022-08-25T12:41:30;99639.62;;;20.93;57.06
54554;BME280;40450;55.848;-3.572;2022-08-25T12:44:09;99637.09;;;21.09;56.22
54554;BME280;40450;55.848;-3.572;2022-08-25T12:46:34;99639.59;;;21.37;53.15
54554;BME280;40450;55.848;-3.572;2022-08-25T12:49:04;99636.52;;;21.55;53.74
54554;BME280;40450;55.848;-3.572;2022-08-25T12:54:11;99624.87;;;21.09;55.96
54554;BME280;40450;55.848;-3.572;2022-08-25T12:56:36;99631.02;;;19.93;57.50
54554;BME280;40450;55.848;-3.572;2022-08-25T12:59:11;99626.93;;;19.98;58.29
54554;BME280;40450;55.848;-3.572;2022-08-25T13:04:18;99617.34;;;19.92;58.11
54554;BME280;40450;55.848;-3.572;2022-08-25T13:06:41;99615.14;;;21.09;54.85
54554;BME280;40450;55.848;-3.572;2022-08-25T13:11:38;99609.65;;;20.18;54.30
54554;BME280;40450;55.848;-3.572;2022-08-25T13:14:13;99616.94;;;21.09;52.34
54554;BME280;40450;55.848;-3.572;2022-08-25T13:16:36;99619.88;;;20.61;50.58
54554;BME280;40450;55.848;-3.572;2022-08-25T13:19:06;99624.33;;;20.71;50.95
54554;BME280;40450;55.848;-3.572;2022-08-25T13:21:39;99620.22;;;20.78;48.59
54554;BME280;40450;55.848;-3.572;2022-08-25T13:24:13;99623.05;;;20.54;50.20
54554;BME280;40450;55.848;-3.572;2022-08-25T13:26:39;99620.22;;;20.63;51.09
54554;BME280;40450;55.848;-3.572;2022-08-25T13:29:15;99613.36;;;20.66;51.36
54554;BME280;40450;55.848;-3.572;2022-08-25T13:34:16;99619.09;;;20.29;48.99
54554;BME280;40450;55.848;-3.572;2022-08-25T13:36:42;99614.99;;;20.48;49.26
54554;BME280;40450;55.848;-3.572;2022-08-25T13:39:12;99613.73;;;20.51;49.79
54554;BME280;40450;55.848;-3.572;2022-08-25T13:41:44;99619.39;;;20.87;49.85